createdAt,value
2022-08-26T00:00:08.061Z,23.03
2022-08-26T00:02:41.009Z,23.03
2022-08-26T00:05:09.190Z,22.97
2022-08-26T00:07:36.967Z,22.86
2022-08-26T00:10:06.996Z,22.85
2022-08-26T00:12:37.514Z,22.75
2022-08-26T00:15:08.402Z,22.67
2022-08-26T00:17:40.221Z,22.65
2022-08-26T00:20:10.588Z,22.47
2022-08-26T00:22:38.488Z,22.49
2022-08-26T00:25:08.788Z,22.56
2022-08-26T00:27:36.646Z,22.67
2022-08-26T00:30:07.769Z,22.75
2022-08-26T00:32:36.356Z,22.64
2022-08-26T00:35:07.437Z,22.53
2022-08-26T00:37:36.050Z,22.47
2022-08-26T00:40:06.527Z,22.49
2022-08-26T00:42:33.960Z,22.54
2022-08-26T00:45:02.091Z,22.65
2022-08-26T00:47:44.205Z,22.67
2022-08-26T00:50:16.241Z,22.65
2022-08-26T00:52:45.235Z,22.77
2022-08-26T00:55:20.540Z,22.78
2022-08-26T00:57:51.219Z,22.74
2022-08-26T01:00:24.208Z,22.88
2022-08-26T01:02:52.399Z,22.84
2022-08-26T01:05:20.939Z,22.83
2022-08-26T01:07:50.345Z,22.89
2022-08-26T01:10:27.284Z,22.94
2022-08-26T01:13:01.993Z,22.90
2022-08-26T01:15:35.390Z,22.85
2022-08-26T01:18:08.105Z,22.84
2022-08-26T01:21:07.117Z,22.94
2022-08-26T01:23:39.714Z,22.86
2022-08-26T01:26:19.888Z,22.77
2022-08-26T01:28:52.559Z,22.88
2022-08-26T01:31:25.582Z,22.93
2022-08-26T01:34:07.338Z,22.88
2022-08-26T01:36:41.557Z,22.89
2022-08-26T01:39:10.793Z,22.92
2022-08-26T01:41:41.064Z,22.94
2022-08-26T01:44:17.261Z,22.85
2022-08-26T01:46:46.933Z,22.93
2022-08-26T01:49:15.829Z,22.87
2022-08-26T01:51:44.812Z,22.97
2022-08-26T01:54:13.863Z,22.97
2022-08-26T01:56:41.613Z,22.94
2022-08-26T01:59:12.528Z,22.92
2022-08-26T02:01:41.467Z,22.92
2022-08-26T02:04:23.802Z,22.91
2022-08-26T02:06:54.203Z,22.86
2022-08-26T02:09:25.621Z,22.89
2022-08-26T02:11:55.115Z,22.93
2022-08-26T02:14:29.095Z,22.94
2022-08-26T02:16:57.016Z,22.94
2022-08-26T02:19:30.930Z,22.88
2022-08-26T02:22:07.629Z,22.83
2022-08-26T02:24:50.825Z,22.91
2022-08-26T02:27:23.928Z,22.93
2022-08-26T02:30:08.934Z,22.88
2022-08-26T02:32:41.355Z,22.91
2022-08-26T02:35:13.119Z,22.79
2022-08-26T02:37:49.701Z,22.67
2022-08-26T02:40:22.646Z,22.67
2022-08-26T02:42:53.011Z,22.76
2022-08-26T02:45:27.093Z,22.80
2022-08-26T02:47:59.691Z,22.66
2022-08-26T02:50:29.057Z,22.49
2022-08-26T02:52:57.589Z,22.36
2022-08-26T02:55:25.605Z,22.26
2022-08-26T02:57:54.143Z,22.14
2022-08-26T03:00:25.654Z,22.17
2022-08-26T03:02:53.206Z,22.15
2022-08-26T03:05:25.320Z,22.03
2022-08-26T03:07:53.655Z,22.06
2022-08-26T03:10:23.234Z,22.04
2022-08-26T03:12:53.792Z,21.97
2022-08-26T03:15:22.063Z,22.04
2022-08-26T03:17:50.325Z,22.10
2022-08-26T03:20:19.693Z,22.02
2022-08-26T03:22:47.784Z,22.00
2022-08-26T03:25:17.229Z,21.99
2022-08-26T03:27:45.609Z,21.91
2022-08-26T03:30:33.601Z,21.90
2022-08-26T03:33:01.824Z,21.86
2022-08-26T03:35:33.486Z,21.83
2022-08-26T03:38:01.952Z,21.76
2022-08-26T03:40:30.372Z,21.69
2022-08-26T03:42:57.943Z,21.67
2022-08-26T03:45:27.101Z,21.67
2022-08-26T03:47:54.753Z,21.74
2022-08-26T03:50:26.464Z,21.69
2022-08-26T03:52:56.593Z,21.72
2022-08-26T03:55:27.664Z,21.61
2022-08-26T03:57:55.290Z,21.53
2022-08-26T04:00:24.382Z,21.44
2022-08-26T04:02:53.620Z,21.37
2022-08-26T04:05:22.747Z,21.37
2022-08-26T04:07:51.321Z,21.29
2022-08-26T04:10:28.515Z,21.39
2022-08-26T04:12:59.136Z,21.31
2022-08-26T04:15:27.210Z,21.19
2022-08-26T04:17:55.811Z,21.14
2022-08-26T04:20:23.933Z,21.13
2022-08-26T04:22:51.710Z,21.06
2022-08-26T04:25:20.481Z,20.97
2022-08-26T04:27:48.639Z,20.95
2022-08-26T04:30:18.138Z,21.01
2022-08-26T04:32:45.741Z,21.02
2022-08-26T04:35:13.737Z,21.04
2022-08-26T04:37:42.674Z,21.14
2022-08-26T04:40:11.678Z,21.27
2022-08-26T04:42:39.267Z,21.23
2022-08-26T04:45:09.917Z,21.17
2022-08-26T04:47:39.698Z,21.23
2022-08-26T04:50:08.331Z,21.18
2022-08-26T04:52:38.782Z,21.23
2022-08-26T04:55:08.458Z,21.24
2022-08-26T04:57:36.874Z,21.27
2022-08-26T05:00:10.256Z,21.31
2022-08-26T05:02:38.730Z,21.40
2022-08-26T05:05:07.202Z,21.31
2022-08-26T05:07:35.347Z,21.33
2022-08-26T05:10:03.710Z,21.33
2022-08-26T05:12:36.829Z,21.45
2022-08-26T05:15:06.122Z,21.47
2022-08-26T05:17:33.617Z,21.48
2022-08-26T05:20:02.157Z,21.56
2022-08-26T05:22:31.048Z,21.55
2022-08-26T05:24:58.587Z,21.62
2022-08-26T05:27:26.181Z,21.69
2022-08-26T05:29:57.781Z,21.66
2022-08-26T05:32:25.340Z,21.69
2022-08-26T05:34:57.052Z,21.67
2022-08-26T05:37:26.022Z,21.69
2022-08-26T05:39:53.387Z,21.68
2022-08-26T05:42:21.476Z,21.68
2022-08-26T05:44:55.843Z,21.75
2022-08-26T05:47:25.647Z,21.80
2022-08-26T05:49:53.466Z,21.81
2022-08-26T05:52:22.109Z,21.84
2022-08-26T05:54:54.043Z,21.92
2022-08-26T05:57:23.240Z,21.95
2022-08-26T05:59:51.844Z,22.04
2022-08-26T06:02:20.163Z,22.05
2022-08-26T06:04:47.949Z,22.14
2022-08-26T06:07:16.920Z,22.26
2022-08-26T06:09:46.778Z,22.35
2022-08-26T06:12:14.764Z,22.47
2022-08-26T06:14:42.693Z,22.52
2022-08-26T06:17:10.270Z,22.59
2022-08-26T06:19:37.644Z,22.66
2022-08-26T06:22:28.789Z,22.66
2022-08-26T06:25:14.885Z,22.73
2022-08-26T06:27:42.382Z,22.82
2022-08-26T06:30:10.420Z,23.11
2022-08-26T06:32:37.893Z,23.29
2022-08-26T06:35:06.667Z,23.35
2022-08-26T06:37:40.420Z,23.41
2022-08-26T06:40:09.341Z,23.73
2022-08-26T06:42:39.346Z,23.97
2022-08-26T06:45:07.781Z,23.99
2022-08-26T06:47:36.308Z,24.00
2022-08-26T06:50:03.858Z,24.13
2022-08-26T06:52:31.257Z,24.16
2022-08-26T06:54:58.742Z,24.22
2022-08-26T06:57:26.089Z,24.51
2022-08-26T06:59:53.470Z,24.88
2022-08-26T07:02:20.988Z,24.97
2022-08-26T07:04:48.478Z,25.00
2022-08-26T07:07:18.852Z,25.05
2022-08-26T07:09:49.530Z,25.25
2022-08-26T07:12:20.501Z,25.70
2022-08-26T07:14:48.502Z,25.75
2022-08-26T07:17:16.558Z,26.06
2022-08-26T07:19:44.038Z,26.29
2022-08-26T07:22:12.837Z,26.05
2022-08-26T07:24:42.493Z,26.20
2022-08-26T07:27:13.846Z,26.46
2022-08-26T07:29:43.412Z,27.00
2022-08-26T07:32:13.261Z,26.94
2022-08-26T07:34:42.035Z,27.08
2022-08-26T07:37:09.681Z,26.88
2022-08-26T07:39:37.695Z,26.69
2022-08-26T07:42:09.132Z,26.57
2022-08-26T07:44:40.486Z,27.08
2022-08-26T07:47:24.071Z,27.26
2022-08-26T07:49:56.511Z,27.35
2022-08-26T07:52:27.320Z,27.24
2022-08-26T07:54:58.250Z,27.17
2022-08-26T07:57:27.953Z,27.43
2022-08-26T07:59:56.273Z,27.89
2022-08-26T08:02:25.717Z,28.05
2022-08-26T08:04:54.564Z,28.23
2022-08-26T08:07:38.520Z,28.41
2022-08-26T08:10:11.698Z,28.23
2022-08-26T08:12:40.870Z,28.52
2022-08-26T08:15:09.874Z,28.45
2022-08-26T08:17:37.335Z,28.40
2022-08-26T08:20:06.699Z,28.46
2022-08-26T08:22:35.366Z,28.52
2022-08-26T08:25:03.023Z,29.01
2022-08-26T08:27:37.651Z,28.93
2022-08-26T08:30:06.820Z,29.23
2022-08-26T08:32:38.340Z,28.99
2022-08-26T08:35:11.103Z,29.14
2022-08-26T08:37:39.540Z,29.25
2022-08-26T08:40:09.708Z,29.38
2022-08-26T08:42:47.865Z,29.54
2022-08-26T08:45:36.280Z,29.21
2022-08-26T08:48:20.210Z,29.37
2022-08-26T08:50:54.097Z,29.39
2022-08-26T08:53:33.038Z,29.41
2022-08-26T08:56:06.874Z,29.61
2022-08-26T08:58:52.744Z,29.53
2022-08-26T09:01:42.916Z,29.14
2022-08-26T09:04:17.271Z,29.36
2022-08-26T09:06:48.525Z,29.75
2022-08-26T09:10:05.695Z,29.77
2022-08-26T09:12:34.848Z,29.96
2022-08-26T09:15:11.365Z,29.63
2022-08-26T09:17:46.695Z,29.56
2022-08-26T09:20:32.271Z,29.22
2022-08-26T09:22:59.734Z,29.58
2022-08-26T09:25:27.109Z,29.84
2022-08-26T09:27:54.747Z,29.81
2022-08-26T09:30:22.188Z,29.16
2022-08-26T09:33:10.214Z,29.51
2022-08-26T09:35:41.910Z,29.49
2022-08-26T09:38:33.818Z,29.58
2022-08-26T09:41:05.150Z,29.55
2022-08-26T09:43:32.942Z,29.84
2022-08-26T09:46:30.223Z,30.19
2022-08-26T09:49:26.028Z,30.49
2022-08-26T09:52:09.095Z,30.47
2022-08-26T09:54:38.611Z,30.12
2022-08-26T09:57:24.813Z,30.24
2022-08-26T09:59:53.158Z,30.31
2022-08-26T10:02:37.841Z,30.14
2022-08-26T10:05:10.208Z,30.43
2022-08-26T10:07:41.180Z,30.41
2022-08-26T10:10:36.580Z,30.43
2022-08-26T10:13:28.001Z,30.41
2022-08-26T10:16:18.753Z,30.68
2022-08-26T10:19:08.132Z,30.75
2022-08-26T10:22:06.149Z,30.62
2022-08-26T10:24:44.549Z,30.66
2022-08-26T10:27:28.110Z,30.80
2022-08-26T10:30:06.146Z,30.86
2022-08-26T10:32:41.541Z,30.77
2022-08-26T10:35:15.866Z,30.34
2022-08-26T10:37:50.028Z,30.94
2022-08-26T10:40:26.669Z,31.10
2022-08-26T10:43:01.796Z,31.24
2022-08-26T10:48:35.561Z,31.52
2022-08-26T10:51:04.504Z,31.50
2022-08-26T10:53:58.592Z,31.47
2022-08-26T10:56:57.530Z,31.68
2022-08-26T10:59:31.161Z,31.16
2022-08-26T11:02:30.192Z,31.69
2022-08-26T11:05:04.022Z,31.68
2022-08-26T11:07:55.503Z,31.57
2022-08-26T11:10:43.460Z,31.35
2022-08-26T11:13:12.135Z,31.25
2022-08-26T11:15:39.686Z,30.98
2022-08-26T11:18:12.487Z,31.31
2022-08-26T11:20:47.443Z,31.20
2022-08-26T11:23:50.476Z,31.26
2022-08-26T11:26:35.466Z,31.26
2022-08-26T11:29:06.647Z,31.27
2022-08-26T11:31:41.029Z,31.05
2022-08-26T11:34:13.703Z,30.42
2022-08-26T11:36:47.003Z,30.49
2022-08-26T11:39:20.437Z,30.72
2022-08-26T11:41:52.725Z,30.94
2022-08-26T11:44:24.860Z,31.01
2022-08-26T11:46:57.294Z,31.06
2022-08-26T11:49:28.335Z,30.68
2022-08-26T11:52:17.999Z,30.72
2022-08-26T11:55:12.149Z,30.97
2022-08-26T11:57:46.431Z,31.23
2022-08-26T12:00:27.721Z,31.34
2022-08-26T12:03:07.264Z,31.40
2022-08-26T12:05:43.998Z,31.62
2022-08-26T12:08:19.737Z,31.28
2022-08-26T12:10:48.777Z,31.26
2022-08-26T12:13:26.415Z,31.20
2022-08-26T12:16:01.107Z,31.51
2022-08-26T12:18:36.768Z,31.79
2022-08-26T12:21:26.582Z,31.71
2022-08-26T12:24:00.939Z,31.70
2022-08-26T12:26:36.452Z,31.66
2022-08-26T12:29:20.160Z,31.56
2022-08-26T12:32:28.221Z,31.72
2022-08-26T12:34:56.765Z,31.87
2022-08-26T12:37:27.126Z,31.92
2022-08-26T12:39:55.575Z,31.77
2022-08-26T12:42:41.097Z,31.23
2022-08-26T12:45:09.109Z,31.47
2022-08-26T12:47:44.102Z,31.36
2022-08-26T12:50:27.506Z,31.36
2022-08-26T12:52:57.954Z,31.40
2022-08-26T12:55:25.502Z,31.41
2022-08-26T12:58:32.817Z,31.45
2022-08-26T13:01:08.765Z,31.46
2022-08-26T13:03:45.541Z,31.61
2022-08-26T13:06:18.006Z,31.72
2022-08-26T13:09:23.527Z,31.70
2022-08-26T13:11:53.123Z,31.80
2022-08-26T13:14:24.414Z,31.63
2022-08-26T13:16:53.028Z,31.70
2022-08-26T13:19:24.016Z,31.69
2022-08-26T13:21:54.802Z,31.85
2022-08-26T13:24:25.407Z,31.60
2022-08-26T13:26:52.981Z,32.02
2022-08-26T13:29:20.675Z,31.88
2022-08-26T13:31:48.788Z,31.89
2022-08-26T13:34:20.055Z,31.82
2022-08-26T13:36:49.593Z,32.07
2022-08-26T13:39:18.368Z,32.04
2022-08-26T13:41:46.188Z,32.22
2022-08-26T13:44:14.059Z,31.75
2022-08-26T13:46:41.775Z,31.99
2022-08-26T13:49:10.644Z,31.86
2022-08-26T13:51:38.723Z,31.70
2022-08-26T13:54:06.932Z,31.82
2022-08-26T13:56:34.835Z,31.95
2022-08-26T13:59:03.156Z,32.03
2022-08-26T14:01:36.176Z,32.11
2022-08-26T14:04:04.205Z,31.94
2022-08-26T14:06:31.626Z,31.39
2022-08-26T14:08:59.139Z,31.84
2022-08-26T14:11:26.989Z,32.15
2022-08-26T14:13:54.463Z,32.25
2022-08-26T14:16:26.922Z,32.15
2022-08-26T14:18:54.858Z,32.10
2022-08-26T14:21:24.352Z,32.11
2022-08-26T14:23:52.407Z,32.04
2022-08-26T14:26:29.182Z,32.18
2022-08-26T14:29:02.530Z,32.25
2022-08-26T14:31:31.804Z,32.19
2022-08-26T14:34:02.879Z,31.85
2022-08-26T14:36:33.131Z,31.89
2022-08-26T14:39:10.071Z,31.71
2022-08-26T14:41:54.191Z,31.90
2022-08-26T14:44:27.022Z,32.02
2022-08-26T14:46:55.224Z,32.15
2022-08-26T14:49:24.439Z,32.14
2022-08-26T14:51:53.346Z,32.16
2022-08-26T14:54:21.556Z,31.80
2022-08-26T14:57:05.523Z,31.89
2022-08-26T14:59:39.591Z,31.78
2022-08-26T15:02:10.552Z,31.89
2022-08-26T15:04:41.839Z,31.76
2022-08-26T15:07:09.639Z,31.88
2022-08-26T15:09:42.073Z,32.03
2022-08-26T15:12:09.721Z,32.04
2022-08-26T15:14:37.078Z,32.08
2022-08-26T15:17:04.734Z,32.08
2022-08-26T15:19:33.124Z,32.06
2022-08-26T15:22:01.749Z,32.00
2022-08-26T15:24:29.479Z,31.90
2022-08-26T15:26:57.708Z,31.72
2022-08-26T15:29:25.308Z,31.75
2022-08-26T15:31:55.257Z,31.78
2022-08-26T15:34:25.482Z,31.89
2022-08-26T15:36:53.027Z,31.85
2022-08-26T15:39:21.000Z,31.79
2022-08-26T15:41:48.433Z,31.54
2022-08-26T15:44:17.206Z,31.58
2022-08-26T15:46:45.205Z,31.41
2022-08-26T15:49:18.412Z,31.54
2022-08-26T15:51:51.458Z,31.45
2022-08-26T15:54:22.456Z,31.35
2022-08-26T15:56:52.115Z,31.24
2022-08-26T15:59:21.561Z,31.11
2022-08-26T16:01:49.107Z,30.76
2022-08-26T16:04:17.589Z,30.53
2022-08-26T16:06:47.411Z,30.51
2022-08-26T16:09:14.824Z,30.32
2022-08-26T16:11:42.341Z,30.23
2022-08-26T16:14:09.771Z,30.10
2022-08-26T16:16:39.414Z,30.09
2022-08-26T16:19:08.355Z,30.12
2022-08-26T16:21:35.954Z,29.92
2022-08-26T16:24:04.971Z,29.83
2022-08-26T16:26:35.352Z,29.89
2022-08-26T16:29:09.678Z,29.82
2022-08-26T16:31:38.337Z,29.79
2022-08-26T16:34:07.456Z,29.70
2022-08-26T16:36:37.149Z,29.75
2022-08-26T16:39:06.883Z,29.76
2022-08-26T16:41:35.125Z,29.65
2022-08-26T16:44:03.075Z,29.72
2022-08-26T16:46:30.705Z,29.82
2022-08-26T16:48:58.839Z,29.92
2022-08-26T16:51:27.709Z,30.15
2022-08-26T16:53:57.067Z,30.11
2022-08-26T16:56:33.615Z,29.99
2022-08-26T16:59:07.116Z,30.05
2022-08-26T17:01:34.668Z,29.97
2022-08-26T17:04:02.192Z,29.95
2022-08-26T17:06:29.792Z,29.89
2022-08-26T17:08:57.264Z,29.81
2022-08-26T17:11:24.630Z,29.87
2022-08-26T17:13:52.022Z,29.87
2022-08-26T17:16:22.256Z,29.75
2022-08-26T17:18:51.984Z,29.76
2022-08-26T17:21:19.362Z,29.72
2022-08-26T17:23:46.762Z,29.74
2022-08-26T17:26:14.283Z,29.58
2022-08-26T17:28:41.743Z,29.60
2022-08-26T17:31:11.145Z,29.23
2022-08-26T17:33:39.654Z,29.00
2022-08-26T17:36:08.758Z,28.74
2022-08-26T17:38:38.175Z,28.68
2022-08-26T17:41:11.070Z,28.43
2022-08-26T17:43:41.117Z,28.52
2022-08-26T17:46:11.612Z,28.41
2022-08-26T17:48:40.628Z,28.29
2022-08-26T17:51:11.133Z,28.11
2022-08-26T17:53:40.231Z,28.00
2022-08-26T17:56:10.042Z,28.01
2022-08-26T17:58:37.790Z,27.72
2022-08-26T18:01:06.218Z,27.79
2022-08-26T18:03:35.757Z,27.81
2022-08-26T18:06:09.104Z,27.75
2022-08-26T18:08:38.198Z,27.81
2022-08-26T18:11:11.579Z,27.62
2022-08-26T18:13:47.300Z,27.40
2022-08-26T18:16:17.557Z,27.46
2022-08-26T18:18:46.903Z,27.46
2022-08-26T18:21:17.696Z,27.25
2022-08-26T18:23:46.509Z,27.14
2022-08-26T18:26:20.138Z,27.24
2022-08-26T18:28:47.615Z,27.03
2022-08-26T18:31:15.630Z,26.98
2022-08-26T18:33:43.327Z,27.26
2022-08-26T18:36:21.759Z,27.15
2022-08-26T18:38:50.855Z,26.91
2022-08-26T18:41:20.949Z,26.71
2022-08-26T18:43:50.481Z,26.88
2022-08-26T18:46:20.127Z,27.10
2022-08-26T18:48:50.903Z,27.10
2022-08-26T18:51:31.036Z,27.05
2022-08-26T18:54:00.166Z,26.96
2022-08-26T18:56:28.573Z,26.89
2022-08-26T18:58:56.333Z,26.93
2022-08-26T19:01:27.365Z,26.86
2022-08-26T19:03:57.330Z,26.67
2022-08-26T19:06:26.749Z,26.48
2022-08-26T19:08:55.784Z,26.43
2022-08-26T19:11:31.809Z,26.44
2022-08-26T19:14:04.277Z,26.40
2022-08-26T19:16:32.798Z,26.60
2022-08-26T19:19:01.822Z,26.63
2022-08-26T19:21:30.007Z,26.57
2022-08-26T19:23:59.727Z,26.53
2022-08-26T19:26:30.031Z,26.53
2022-08-26T19:29:00.556Z,26.51
2022-08-26T19:31:28.415Z,26.31
2022-08-26T19:33:57.968Z,26.23
2022-08-26T19:36:28.651Z,26.36
2022-08-26T19:38:56.744Z,26.36
2022-08-26T19:41:37.439Z,26.41
2022-08-26T19:44:13.648Z,26.28
2022-08-26T19:46:42.434Z,26.19
2022-08-26T19:49:09.838Z,26.10
2022-08-26T19:51:39.669Z,26.13
2022-08-26T19:54:09.135Z,26.04
2022-08-26T19:56:37.094Z,25.93
2022-08-26T19:59:05.836Z,25.97
2022-08-26T20:01:33.328Z,25.94
2022-08-26T20:04:00.961Z,25.98
2022-08-26T20:06:28.438Z,25.95
2022-08-26T20:08:56.323Z,26.04
2022-08-26T20:11:24.441Z,25.94
2022-08-26T20:13:52.143Z,25.88
2022-08-26T20:16:19.622Z,25.86
2022-08-26T20:19:05.638Z,25.91
2022-08-26T20:21:35.758Z,25.86
2022-08-26T20:24:13.154Z,25.88
2022-08-26T20:26:43.219Z,25.89
2022-08-26T20:29:13.781Z,25.85
2022-08-26T20:31:42.468Z,25.85
2022-08-26T20:34:10.282Z,25.79
2022-08-26T20:36:40.461Z,25.79
2022-08-26T20:39:08.920Z,25.67
2022-08-26T20:41:36.976Z,25.62
2022-08-26T20:44:06.004Z,25.56
2022-08-26T20:46:35.326Z,25.58
2022-08-26T20:49:05.942Z,25.44
2022-08-26T20:51:37.410Z,25.50
2022-08-26T20:54:06.555Z,25.46
2022-08-26T20:56:35.216Z,25.52
2022-08-26T20:59:06.897Z,25.45
2022-08-26T21:01:36.868Z,25.43
2022-08-26T21:04:12.716Z,25.38
2022-08-26T21:06:40.545Z,25.29
2022-08-26T21:09:13.923Z,25.32
2022-08-26T21:11:43.996Z,25.20
2022-08-26T21:14:15.922Z,25.05
2022-08-26T21:16:45.587Z,24.88
2022-08-26T21:19:15.303Z,24.76
2022-08-26T21:21:44.962Z,24.64
2022-08-26T21:24:13.363Z,24.62
2022-08-26T21:26:41.103Z,24.65
2022-08-26T21:29:10.148Z,24.77
2022-08-26T21:31:42.250Z,24.91
2022-08-26T21:34:16.906Z,24.91
2022-08-26T21:36:48.408Z,25.04
2022-08-26T21:39:16.724Z,25.05
2022-08-26T21:41:45.823Z,25.02
2022-08-26T21:44:14.563Z,25.01
2022-08-26T21:46:43.678Z,24.94
2022-08-26T21:49:13.828Z,24.94
2022-08-26T21:51:44.843Z,24.96
2022-08-26T21:54:14.331Z,24.89
2022-08-26T21:56:46.140Z,24.88
2022-08-26T21:59:16.448Z,24.88
2022-08-26T22:01:44.693Z,24.77
2022-08-26T22:04:12.223Z,24.75
2022-08-26T22:06:46.427Z,24.89
2022-08-26T22:09:15.975Z,24.84
2022-08-26T22:11:43.812Z,24.80
2022-08-26T22:14:12.600Z,24.80
2022-08-26T22:16:40.730Z,24.74
2022-08-26T22:19:12.275Z,24.76
2022-08-26T22:21:45.753Z,24.71
2022-08-26T22:24:13.476Z,24.72
2022-08-26T22:26:40.933Z,24.73
2022-08-26T22:29:08.408Z,24.60
2022-08-26T22:31:37.555Z,24.56
2022-08-26T22:34:15.404Z,24.28
2022-08-26T22:36:46.138Z,24.32
2022-08-26T22:39:15.643Z,24.39
2022-08-26T22:41:44.236Z,24.51
2022-08-26T22:44:12.250Z,24.51
2022-08-26T22:46:40.868Z,24.55
2022-08-26T22:49:10.162Z,24.58
2022-08-26T22:51:37.883Z,24.59
2022-08-26T22:54:06.238Z,24.50
2022-08-26T22:56:35.775Z,24.52
2022-08-26T22:59:07.818Z,24.56
2022-08-26T23:01:37.479Z,24.60
2022-08-26T23:04:06.956Z,24.62
2022-08-26T23:06:37.402Z,24.50
2022-08-26T23:09:07.934Z,24.48
2022-08-26T23:11:36.186Z,24.44
2022-08-26T23:14:06.476Z,24.15
2022-08-26T23:16:39.178Z,23.86
2022-08-26T23:19:09.567Z,24.16
2022-08-26T23:21:38.067Z,24.38
2022-08-26T23:24:06.731Z,24.40
2022-08-26T23:26:34.762Z,24.23
2022-08-26T23:29:02.982Z,24.08
2022-08-26T23:31:31.047Z,24.10
2022-08-26T23:34:17.429Z,24.00
2022-08-26T23:36:45.718Z,23.79
2022-08-26T23:39:14.709Z,23.64
2022-08-26T23:41:42.570Z,23.45
2022-08-26T23:44:11.085Z,23.44
2022-08-26T23:46:38.874Z,23.32
2022-08-26T23:49:06.663Z,23.32
2022-08-26T23:51:53.526Z,23.21
2022-08-26T23:54:21.152Z,23.18
2022-08-26T23:56:48.792Z,23.15
2022-08-26T23:59:16.211Z,23.12
